createdAt,value
2023-05-08T00:03:55.909Z,7
2023-05-08T00:09:01.803Z,6.9
2023-05-08T00:14:07.911Z,6.9
2023-05-08T00:19:14.020Z,7
2023-05-08T00:24:20.150Z,7
2023-05-08T00:29:26.214Z,7
2023-05-08T00:34:32.299Z,6.7
2023-05-08T00:39:38.408Z,6.7
2023-05-08T00:44:44.524Z,6.6
2023-05-08T00:49:50.613Z,6.6
2023-05-08T00:54:56.697Z,6.8
2023-05-08T01:00:02.767Z,6.9
2023-05-08T01:05:08.866Z,6.7
2023-05-08T01:10:15.240Z,6.6
2023-05-08T01:15:26.733Z,6.7
2023-05-08T01:20:32.831Z,6.8
2023-05-08T01:25:38.926Z,6.9
2023-05-08T01:30:45.005Z,6.8
2023-05-08T01:35:51.140Z,6.7
2023-05-08T01:40:57.219Z,6.7
2023-05-08T01:46:03.288Z,6.7
2023-05-08T01:51:09.408Z,6.6
2023-05-08T01:56:15.476Z,6.6
2023-05-08T02:01:21.630Z,6.5
2023-05-08T02:06:27.655Z,6.5
2023-05-08T02:11:33.764Z,6.2
2023-05-08T02:16:39.892Z,6
2023-05-08T02:21:45.957Z,5.8
2023-05-08T02:26:52.044Z,5.8
2023-05-08T02:31:58.235Z,5.9
2023-05-08T02:37:04.289Z,5.7
2023-05-08T02:42:10.345Z,5.8
2023-05-08T02:47:16.419Z,5.9
2023-05-08T02:52:22.532Z,6.1
2023-05-08T02:57:34.257Z,6.2
2023-05-08T03:02:46.026Z,6.2
2023-05-08T03:07:52.078Z,6
2023-05-08T03:13:03.916Z,6
2023-05-08T03:18:09.936Z,6.1
2023-05-08T03:23:15.999Z,6.1
2023-05-08T03:28:22.076Z,6.2
2023-05-08T03:33:28.152Z,6.3
2023-05-08T03:38:34.277Z,6.2
2023-05-08T03:43:40.394Z,6.2
2023-05-08T03:48:46.481Z,6.2
2023-05-08T03:53:52.525Z,6.2
2023-05-08T03:58:58.662Z,6.3
2023-05-08T04:04:10.373Z,6.2
2023-05-08T04:09:16.479Z,6.3
2023-05-08T04:14:22.569Z,6.5
2023-05-08T04:19:28.664Z,6.5
2023-05-08T04:24:34.721Z,6.6
2023-05-08T04:29:40.839Z,6.4
2023-05-08T04:34:46.939Z,6.5
2023-05-08T04:39:53.019Z,6.6
2023-05-08T04:44:59.120Z,6.8
2023-05-08T04:50:10.829Z,6.7
2023-05-08T04:55:22.579Z,6.5
2023-05-08T05:00:28.671Z,6.3
2023-05-08T05:05:35.241Z,6.5
2023-05-08T05:10:40.868Z,6.9
2023-05-08T05:15:46.958Z,6.7
2023-05-08T05:20:53.030Z,6.6
2023-05-08T05:25:59.169Z,6.8
2023-05-08T05:31:05.265Z,7
2023-05-08T05:36:11.318Z,7.1
2023-05-08T05:41:17.431Z,7.3
2023-05-08T05:46:23.502Z,7.3
2023-05-08T05:51:29.586Z,7.4
2023-05-08T05:56:35.720Z,7.4
2023-05-08T06:01:41.840Z,7.3
2023-05-08T06:06:47.882Z,7.7
2023-05-08T06:11:53.988Z,8.3
2023-05-08T06:17:00.146Z,8.4
2023-05-08T06:22:06.204Z,8.2
2023-05-08T06:27:12.275Z,8.3
2023-05-08T06:32:18.411Z,8.4
2023-05-08T06:37:30.074Z,8.4
2023-05-08T06:42:41.834Z,8.2
2023-05-08T06:47:47.966Z,8.9
2023-05-08T06:52:54.015Z,8.7
2023-05-08T06:58:00.125Z,8.5
2023-05-08T07:03:06.231Z,8.4
2023-05-08T07:08:12.305Z,8.4
2023-05-08T07:13:18.442Z,8.2
2023-05-08T07:18:24.475Z,8
2023-05-08T07:23:31.585Z,7.6
2023-05-08T07:28:36.688Z,7.6
2023-05-08T07:33:43.797Z,7.6
2023-05-08T07:38:49.016Z,7.8
2023-05-08T07:43:54.960Z,7.9
2023-05-08T07:49:01.057Z,7.6
2023-05-08T07:54:07.154Z,7.9
2023-05-08T07:59:13.248Z,8.1
2023-05-08T08:04:19.375Z,10
2023-05-08T08:09:25.478Z,10.8
2023-05-08T08:14:31.519Z,9.8
2023-05-08T08:19:37.621Z,10.3
2023-05-08T08:24:49.357Z,11.9
2023-05-08T08:30:04.779Z,10
2023-05-08T08:35:01.562Z,10.1
2023-05-08T08:40:07.648Z,12.5
2023-05-08T08:45:13.880Z,9.7
2023-05-08T08:50:19.833Z,8.9
2023-05-08T08:55:25.936Z,9.2
2023-05-08T09:00:32.052Z,9.3
2023-05-08T09:05:38.122Z,9.4
2023-05-08T09:10:44.214Z,9.6
2023-05-08T09:15:50.322Z,9.9
2023-05-08T09:20:56.402Z,9.9
2023-05-08T09:26:02.520Z,10.1
2023-05-08T09:31:08.610Z,10.4
2023-05-08T09:36:14.706Z,10
2023-05-08T09:41:20.765Z,10.1
2023-05-08T09:46:27.053Z,10
2023-05-08T09:51:32.957Z,10.3
2023-05-08T09:56:39.081Z,9.6
2023-05-08T10:01:45.173Z,9.6
2023-05-08T10:06:56.911Z,10.3
2023-05-08T10:12:08.630Z,10.4
2023-05-08T10:17:20.399Z,10.8
2023-05-08T10:22:26.445Z,10.7
2023-05-08T10:27:33.539Z,10.7
2023-05-08T10:32:38.697Z,10.7
2023-05-08T10:37:44.727Z,10.9
2023-05-08T10:42:50.859Z,11.1
2023-05-08T10:47:56.968Z,10.8
2023-05-08T10:53:03.057Z,10.9
2023-05-08T10:58:09.135Z,10.8
2023-05-08T11:03:27.618Z,10.5
2023-05-08T11:08:21.306Z,10.9
2023-05-08T11:13:27.413Z,11.2
2023-05-08T11:23:39.588Z,12.1
2023-05-08T11:28:45.685Z,12.6
2023-05-08T11:33:51.768Z,12.4
2023-05-08T11:38:57.881Z,12.1
2023-05-08T11:44:04.011Z,12.7
2023-05-08T11:49:10.091Z,12.7
2023-05-08T11:54:27.369Z,13.1
2023-05-08T11:59:33.460Z,13.3
2023-05-08T12:04:39.659Z,12.9
2023-05-08T12:09:45.634Z,12.8
2023-05-08T12:14:51.745Z,12.2
2023-05-08T12:19:57.844Z,12.6
2023-05-08T12:25:03.978Z,12
2023-05-08T12:30:10.027Z,12.4
2023-05-08T12:35:16.129Z,12.9
2023-05-08T12:40:22.238Z,12.9
2023-05-08T12:45:28.417Z,12.8
2023-05-08T12:50:34.405Z,12.6
2023-05-08T12:55:40.493Z,13.1
2023-05-08T13:00:46.654Z,12.9
2023-05-08T13:05:52.724Z,12.6
2023-05-08T13:10:58.789Z,12.5
2023-05-08T13:16:04.928Z,12.4
2023-05-08T13:21:11.005Z,12.3
2023-05-08T13:26:17.079Z,12.4
2023-05-08T13:31:28.882Z,12.8
2023-05-08T13:36:34.899Z,12.6
2023-05-08T13:41:40.999Z,12.4
2023-05-08T13:46:47.091Z,12.1
2023-05-08T13:51:57.027Z,12.2
2023-05-08T13:56:59.269Z,12.4
2023-05-08T14:02:05.412Z,12.3
2023-05-08T14:07:11.450Z,12.9
2023-05-08T14:12:17.599Z,12.6
2023-05-08T14:17:23.734Z,12.4
2023-05-08T14:22:29.765Z,12.2
2023-05-08T14:27:35.852Z,12.2
2023-05-08T14:32:42.019Z,12
2023-05-08T14:37:48.030Z,12.4
2023-05-08T14:42:54.144Z,12.5
2023-05-08T14:48:00.273Z,12.7
2023-05-08T14:53:06.403Z,12.8
2023-05-08T14:58:12.437Z,12.9
2023-05-08T15:03:18.645Z,12.8
2023-05-08T15:08:30.253Z,12.9
2023-05-08T15:13:36.332Z,12.5
2023-05-08T15:18:42.418Z,12.2
2023-05-08T15:23:48.565Z,12.3
2023-05-08T15:28:54.607Z,12.4
2023-05-08T15:34:00.767Z,12.3
2023-05-08T15:39:06.826Z,12.6
2023-05-08T15:44:12.901Z,12.8
2023-05-08T15:49:18.982Z,12.8
2023-05-08T15:54:25.102Z,12.7
2023-05-08T15:59:31.295Z,12.8
2023-05-08T16:04:37.510Z,12.6
2023-05-08T16:09:43.349Z,12.3
2023-05-08T16:14:49.467Z,12.2
2023-05-08T16:19:55.709Z,12.1
2023-05-08T16:25:01.884Z,12
2023-05-08T16:30:07.896Z,12.1
2023-05-08T16:35:14.220Z,11.9
2023-05-08T16:40:20.103Z,12.1
2023-05-08T16:45:37.398Z,12.2
2023-05-08T16:50:43.549Z,12.2
2023-05-08T16:55:49.585Z,12.2
2023-05-08T17:00:55.680Z,12.3
2023-05-08T17:06:01.768Z,12.1
2023-05-08T17:11:07.878Z,12.2
2023-05-08T17:16:14.000Z,11.9
2023-05-08T17:21:20.058Z,11.5
2023-05-08T17:26:26.175Z,11.4
2023-05-08T17:31:32.269Z,11.3
2023-05-08T17:36:38.366Z,11.3
2023-05-08T17:41:44.423Z,11.1
2023-05-08T17:46:50.537Z,10.9
2023-05-08T17:51:56.621Z,10.6
2023-05-08T17:57:02.726Z,10.3
2023-05-08T18:02:08.956Z,10.3
2023-05-08T18:07:14.925Z,10.2
2023-05-08T18:12:21.000Z,10.1
2023-05-08T18:17:27.134Z,10.1
2023-05-08T18:22:44.410Z,9.9
2023-05-08T18:27:50.553Z,9.8
2023-05-08T18:32:56.640Z,9.6
2023-05-08T18:38:02.704Z,9.3
2023-05-08T18:43:08.815Z,9.2
2023-05-08T18:48:14.900Z,9.1
2023-05-08T18:53:20.987Z,8.9
2023-05-08T18:58:27.066Z,8.9
2023-05-08T19:03:33.187Z,8.8
2023-05-08T19:08:39.262Z,8.8
2023-05-08T19:13:45.354Z,8.9
2023-05-08T19:18:51.437Z,9
2023-05-08T19:23:57.539Z,8.9
2023-05-08T19:29:03.631Z,8.7
2023-05-08T19:34:09.739Z,8.5
2023-05-08T19:39:15.832Z,8.5
2023-05-08T19:44:27.563Z,8.4
2023-05-08T19:49:33.681Z,8.2
2023-05-08T19:54:45.401Z,8.3
2023-05-08T19:59:51.492Z,8.3
2023-05-08T20:10:03.676Z,8.5
2023-05-08T20:15:09.764Z,8.4
2023-05-08T20:20:15.994Z,8.2
2023-05-08T20:25:21.974Z,8.3
2023-05-08T20:30:28.089Z,8.4
2023-05-08T20:35:34.155Z,8.4
2023-05-08T20:40:40.246Z,8.4
2023-05-08T20:45:46.348Z,8.3
2023-05-08T20:50:52.433Z,8.2
2023-05-08T20:55:58.509Z,8.1
2023-05-08T21:01:04.634Z,8
2023-05-08T21:06:10.702Z,7.9
2023-05-08T21:11:16.807Z,7.8
2023-05-08T21:16:24.310Z,7.7
2023-05-08T21:21:28.991Z,7.7
2023-05-08T21:26:35.119Z,7.6
2023-05-08T21:31:46.867Z,7.7
2023-05-08T21:36:52.925Z,7.8
2023-05-08T21:41:59.021Z,7.7
2023-05-08T21:47:05.159Z,7.6
2023-05-08T21:52:11.203Z,7.5
2023-05-08T21:57:17.292Z,7.4
2023-05-08T22:02:23.414Z,7.2
2023-05-08T22:07:29.493Z,7.1
2023-05-08T22:12:35.604Z,7.1
2023-05-08T22:17:41.723Z,7.1
2023-05-08T22:22:47.783Z,7.3
2023-05-08T22:27:53.927Z,7.2
2023-05-08T22:33:00.092Z,7.3
2023-05-08T22:38:06.085Z,7.2
2023-05-08T22:43:12.171Z,7.3
2023-05-08T22:48:18.276Z,7.2
2023-05-08T22:53:24.377Z,7.4
2023-05-08T22:58:30.460Z,7.4
2023-05-08T23:03:36.549Z,7.6
2023-05-08T23:08:48.304Z,7.7
2023-05-08T23:13:54.362Z,7.8
2023-05-08T23:19:00.462Z,7.6
2023-05-08T23:24:06.535Z,7.6
2023-05-08T23:29:12.666Z,7.6
2023-05-08T23:34:18.725Z,7.6
2023-05-08T23:39:24.800Z,7.6
2023-05-08T23:44:30.910Z,7.4
2023-05-08T23:49:37.003Z,7.5
2023-05-08T23:54:43.107Z,7.5
2023-05-08T23:59:49.179Z,7.4
